Aviation Digital Data Service (ADDS)

Output produced by METARs form (2142 UTC 21 May 2022)
found at http://www.aviationweather.gov/metar/data/
 
OPLA 212125Z 00000KT 5000 HZ NSC 29/14 Q0994 NOSIG RMK QFE966 A29.36
TAF OPLA 211545Z 2118/2224 32010G20KT 4000 HZ SCT040 SCT100 TX42/2210Z
TN26/2200Z 
     TEMPO 2123/2203 32015G35KT 2000 DRDU 
     FM220400 33010KT 5000 HZ SCT100 
     TEMPO 2212/2216 33025G50KT 0800 DSTSRA FEW030CB SCT040 BKN100 
     FM221800 10008KT 4000 HZ SCT100
       
TAF OPBW 211545Z 2118/2212 09005KT 2500 HZ FEW120 TN28/2201Z TX45/2210Z FM
220700 23010KT 3500 HZ SCT120
       
TAF OPDG 211545Z 2118/2212 31005KT 4000 HZ FEW120 TN29/2201Z TX44/2210Z FM
220700 23010KT 6000 SCT120
       
OPFA 212100Z 23004KT 4000 HZ NSC 27/13 Q0995 NOSIG
TAF OPFA 211555Z 2118/2212 36005KT 4000 HZ FEW100 TX41/2210Z TN28/2200Z 
     TEMPO 2208/2212 23012G25KT 3000 DRDU FEW100
       
TAF OPGD 212130Z 2200/2224 21010G20KT 4000 BLDU NSC 
     TEMPO 2200/2204 23008KT 2000 BR NSC 
     BECMG 2210/2212 31010G20KT 5000 HZ NSC
       
OPKC 212130Z 26015KT 5000 FU SCT020 29/24 Q999 TEMPO 26015G25KT
TAF OPKC 212130Z 2200/2306 23010G20KT 4000 BLDU NSC 
     TEMPO 2200/2204 24008KT 4000 HZ NSC 
     BECMG 2210/2212 25010G20KT 4000 BLDU NSC 
     TEMPO 2300/2304 21007KT 4000 HZ NSC
       
OPMT 212100Z 00000KT 4000 FU NSC 30/19 Q0993 NOSIG
TAF OPMT 211545Z 2118/2212 05005KT 4000 HZ NSC TN28/2201Z TX43/2210Z 
     PROB30 
     TEMPO 2201/2204 36005KT 2500 HZ FEW120 FM 220800 23010KT 5000 HZ SCT120
       
OPNH 212100Z 18008KT 5000 HZ NSC 30/22 Q0994
TAF OPNH 212130Z 2200/2306 26010G20KT 4000 BLDU NSC 
     TEMPO 2200/2204 18008KT 4000 HZ NSC 
     BECMG 2210/2212 16010G20KT 4000 BLDU NSC 
     TEMPO 2300/2304 23007KT 4000 HZ NSC
       
OPPS 212100Z 18004KT 7000 HZ FEW100 26/15 Q996
TAF OPPS 211530Z 2118/2224 18006KT 4500 HZ NSC 
     BECMG 2200/2203 23010G20KT 6000 SCT100 
     TEMPO 2209/2212 31012G28KT 2000 DRDU FEW040TCU SCT060 
     BECMG 2211/2213 31015G25KT 3000 TSRA FEW035CB SCT040 BKN100
       
TAF OPRK 211545Z 2118/2212 31010KT 4000 HZ FEW120 TN29/2201Z TX46/2210Z 
     PROB30 
     TEMPO 2204/2208 31020KT 2500 DRDU NSC FM 220900 27010KT 6000 FEW120
       
OPSK 212100Z 18006KT 4000 HZ NSC 31/14 Q0992 NOSIG
TAF OPSK 212130Z 2200/2224 13010G20KT 4000 BLDU NSC 
     TEMPO 2200/2204 13008KT 4000 HZ NSC 
     BECMG 2210/2212 23010G20KT 5000 HZ NSC